sensor_id;sensor_type;location;lat;lon;timestamp;temperature;humidity
8485;DHT22;34555;49.34829940;8.43506100;2022-10-16T00:01:13;20.80;96.20
8485;DHT22;34555;49.34829940;8.43506100;2022-10-16T00:03:40;20.80;96.20
8485;DHT22;34555;49.34829940;8.43506100;2022-10-16T00:06:06;20.80;96.20
8485;DHT22;34555;49.34829940;8.43506100;2022-10-16T00:08:33;20.80;96.30
8485;DHT22;34555;49.34829940;8.43506100;2022-10-16T00:13:30;20.80;96.20
8485;DHT22;34555;49.34829940;8.43506100;2022-10-16T00:15:57;20.80;96.20
8485;DHT22;34555;49.34829940;8.43506100;2022-10-16T00:18:24;20.80;96.20
8485;DHT22;34555;49.34829940;8.43506100;2022-10-16T00:20:50;20.80;96.20
8485;DHT22;34555;49.34829940;8.43506100;2022-10-16T00:23:15;20.80;96.20
8485;DHT22;34555;49.34829940;8.43506100;2022-10-16T00:25:41;20.80;96.20
8485;DHT22;34555;49.34829940;8.43506100;2022-10-16T00:28:07;20.80;96.20
8485;DHT22;34555;49.34829940;8.43506100;2022-10-16T00:30:32;20.80;96.20
8485;DHT22;34555;49.34829940;8.43506100;2022-10-16T00:32:58;20.80;96.20
8485;DHT22;34555;49.34829940;8.43506100;2022-10-16T00:35:23;20.80;96.20
8485;DHT22;34555;49.34829940;8.43506100;2022-10-16T00:37:49;20.80;96.20
8485;DHT22;34555;49.34829940;8.43506100;2022-10-16T00:40:15;20.70;96.10
8485;DHT22;34555;49.34829940;8.43506100;2022-10-16T00:42:40;20.80;96.20
8485;DHT22;34555;49.34829940;8.43506100;2022-10-16T00:45:07;20.80;96.20
8485;DHT22;34555;49.34829940;8.43506100;2022-10-16T00:47:42;20.80;96.20
8485;DHT22;34555;49.34829940;8.43506100;2022-10-16T00:50:30;20.70;96.10
8485;DHT22;34555;49.34829940;8.43506100;2022-10-16T00:52:57;20.80;96.20
8485;DHT22;34555;49.34829940;8.43506100;2022-10-16T00:55:24;20.80;96.20
8485;DHT22;34555;49.34829940;8.43506100;2022-10-16T00:57:51;20.80;96.20
8485;DHT22;34555;49.34829940;8.43506100;2022-10-16T01:00:23;20.80;96.20
8485;DHT22;34555;49.34829940;8.43506100;2022-10-16T01:02:57;20.70;96.10
8485;DHT22;34555;49.34829940;8.43506100;2022-10-16T01:05:35;20.70;96.10
8485;DHT22;34555;49.34829940;8.43506100;2022-10-16T01:08:07;20.80;96.20
8485;DHT22;34555;49.34829940;8.43506100;2022-10-16T01:10:40;20.70;96.10
8485;DHT22;34555;49.34829940;8.43506100;2022-10-16T01:13:18;20.70;96.10
8485;DHT22;34555;49.34829940;8.43506100;2022-10-16T01:16:32;20.70;96.10
8485;DHT22;34555;49.34829940;8.43506100;2022-10-16T01:19:13;20.70;96.10
8485;DHT22;34555;49.34829940;8.43506100;2022-10-16T01:21:46;20.70;96.10
8485;DHT22;34555;49.34829940;8.43506100;2022-10-16T01:27:10;20.70;96.20
8485;DHT22;34555;49.34829940;8.43506100;2022-10-16T01:32:28;20.70;96.20
8485;DHT22;34555;49.34829940;8.43506100;2022-10-16T01:35:18;20.70;96.10
8485;DHT22;34555;49.34829940;8.43506100;2022-10-16T01:37:58;20.70;96.10
8485;DHT22;34555;49.34829940;8.43506100;2022-10-16T01:40:27;20.70;96.10
8485;DHT22;34555;49.34829940;8.43506100;2022-10-16T01:43:00;20.70;96.10
8485;DHT22;34555;49.34829940;8.43506100;2022-10-16T01:45:29;20.70;96.20
8485;DHT22;34555;49.34829940;8.43506100;2022-10-16T01:47:57;20.70;96.10
8485;DHT22;34555;49.34829940;8.43506100;2022-10-16T01:50:24;20.70;96.10
8485;DHT22;34555;49.34829940;8.43506100;2022-10-16T01:52:54;20.70;96.10
8485;DHT22;34555;49.34829940;8.43506100;2022-10-16T01:55:28;20.70;96.10
8485;DHT22;34555;49.34829940;8.43506100;2022-10-16T01:57:55;20.70;96.10
8485;DHT22;34555;49.34829940;8.43506100;2022-10-16T02:00:22;20.70;96.10
8485;DHT22;34555;49.34829940;8.43506100;2022-10-16T02:02:50;20.70;96.10
8485;DHT22;34555;49.34829940;8.43506100;2022-10-16T02:05:28;20.70;96.10
8485;DHT22;34555;49.34829940;8.43506100;2022-10-16T02:07:56;20.70;96.10
8485;DHT22;34555;49.34829940;8.43506100;2022-10-16T02:10:22;20.70;96.10
8485;DHT22;34555;49.34829940;8.43506100;2022-10-16T02:12:56;20.70;96.00
8485;DHT22;34555;49.34829940;8.43506100;2022-10-16T02:15:23;20.70;96.00
8485;DHT22;34555;49.34829940;8.43506100;2022-10-16T02:17:48;20.70;96.10
8485;DHT22;34555;49.34829940;8.43506100;2022-10-16T02:20:14;20.70;96.10
8485;DHT22;34555;49.34829940;8.43506100;2022-10-16T02:22:43;20.70;96.10
8485;DHT22;34555;49.34829940;8.43506100;2022-10-16T02:25:24;20.70;96.00
8485;DHT22;34555;49.34829940;8.43506100;2022-10-16T02:30:43;20.70;96.00
8485;DHT22;34555;49.34829940;8.43506100;2022-10-16T02:33:11;20.70;95.90
8485;DHT22;34555;49.34829940;8.43506100;2022-10-16T02:35:39;20.70;96.00
8485;DHT22;34555;49.34829940;8.43506100;2022-10-16T02:38:05;20.60;96.00
8485;DHT22;34555;49.34829940;8.43506100;2022-10-16T02:40:31;20.70;95.90
8485;DHT22;34555;49.34829940;8.43506100;2022-10-16T02:42:57;20.60;95.90
8485;DHT22;34555;49.34829940;8.43506100;2022-10-16T02:45:24;20.70;95.90
8485;DHT22;34555;49.34829940;8.43506100;2022-10-16T02:47:50;20.70;95.90
8485;DHT22;34555;49.34829940;8.43506100;2022-10-16T02:50:16;20.70;95.90
8485;DHT22;34555;49.34829940;8.43506100;2022-10-16T02:52:42;20.60;95.90
8485;DHT22;34555;49.34829940;8.43506100;2022-10-16T02:55:07;20.70;95.90
8485;DHT22;34555;49.34829940;8.43506100;2022-10-16T02:57:33;20.70;95.90
8485;DHT22;34555;49.34829940;8.43506100;2022-10-16T02:59:59;20.70;95.90
8485;DHT22;34555;49.34829940;8.43506100;2022-10-16T03:02:24;20.60;95.90
8485;DHT22;34555;49.34829940;8.43506100;2022-10-16T03:04:50;20.60;95.90
8485;DHT22;34555;49.34829940;8.43506100;2022-10-16T03:07:15;20.60;95.80
8485;DHT22;34555;49.34829940;8.43506100;2022-10-16T03:09:41;20.70;95.90
8485;DHT22;34555;49.34829940;8.43506100;2022-10-16T03:12:06;20.60;95.80
8485;DHT22;34555;49.34829940;8.43506100;2022-10-16T03:14:32;20.60;95.80
8485;DHT22;34555;49.34829940;8.43506100;2022-10-16T03:16:58;20.70;95.80
8485;DHT22;34555;49.34829940;8.43506100;2022-10-16T03:19:24;20.60;95.80
8485;DHT22;34555;49.34829940;8.43506100;2022-10-16T03:21:49;20.60;95.70
8485;DHT22;34555;49.34829940;8.43506100;2022-10-16T03:24:15;20.60;95.80
8485;DHT22;34555;49.34829940;8.43506100;2022-10-16T03:26:40;20.60;95.80
8485;DHT22;34555;49.34829940;8.43506100;2022-10-16T03:29:06;20.60;95.70
8485;DHT22;34555;49.34829940;8.43506100;2022-10-16T03:31:32;20.60;95.70
8485;DHT22;34555;49.34829940;8.43506100;2022-10-16T03:33:57;20.60;95.70
8485;DHT22;34555;49.34829940;8.43506100;2022-10-16T03:36:23;20.60;95.70
8485;DHT22;34555;49.34829940;8.43506100;2022-10-16T03:38:49;20.60;95.80
8485;DHT22;34555;49.34829940;8.43506100;2022-10-16T03:41:14;20.60;95.70
8485;DHT22;34555;49.34829940;8.43506100;2022-10-16T03:43:39;20.60;95.90
8485;DHT22;34555;49.34829940;8.43506100;2022-10-16T03:46:05;20.60;95.70
8485;DHT22;34555;49.34829940;8.43506100;2022-10-16T03:48:31;20.60;95.70
8485;DHT22;34555;49.34829940;8.43506100;2022-10-16T03:50:57;20.60;95.70
8485;DHT22;34555;49.34829940;8.43506100;2022-10-16T03:53:23;20.60;95.70
8485;DHT22;34555;49.34829940;8.43506100;2022-10-16T03:55:48;20.60;95.70
8485;DHT22;34555;49.34829940;8.43506100;2022-10-16T03:58:14;20.60;95.70
8485;DHT22;34555;49.34829940;8.43506100;2022-10-16T04:00:44;20.60;95.70
8485;DHT22;34555;49.34829940;8.43506100;2022-10-16T04:03:10;20.60;95.70
8485;DHT22;34555;49.34829940;8.43506100;2022-10-16T04:05:36;20.60;95.60
8485;DHT22;34555;49.34829940;8.43506100;2022-10-16T04:08:01;20.60;96.00
8485;DHT22;34555;49.34829940;8.43506100;2022-10-16T04:10:27;20.60;95.70
8485;DHT22;34555;49.34829940;8.43506100;2022-10-16T04:12:52;20.60;95.70
8485;DHT22;34555;49.34829940;8.43506100;2022-10-16T04:15:24;20.60;95.70
8485;DHT22;34555;49.34829940;8.43506100;2022-10-16T04:17:50;20.60;95.70
8485;DHT22;34555;49.34829940;8.43506100;2022-10-16T04:20:16;20.60;95.80
8485;DHT22;34555;49.34829940;8.43506100;2022-10-16T04:22:42;20.60;95.70
8485;DHT22;34555;49.34829940;8.43506100;2022-10-16T04:25:07;20.60;95.70
8485;DHT22;34555;49.34829940;8.43506100;2022-10-16T04:27:33;20.60;95.70
8485;DHT22;34555;49.34829940;8.43506100;2022-10-16T04:29:59;20.60;95.70
8485;DHT22;34555;49.34829940;8.43506100;2022-10-16T04:32:25;20.60;95.70
8485;DHT22;34555;49.34829940;8.43506100;2022-10-16T04:34:51;20.60;95.70
8485;DHT22;34555;49.34829940;8.43506100;2022-10-16T04:37:16;20.60;95.70
8485;DHT22;34555;49.34829940;8.43506100;2022-10-16T04:39:42;20.60;95.70
8485;DHT22;34555;49.34829940;8.43506100;2022-10-16T04:42:07;20.50;95.60
8485;DHT22;34555;49.34829940;8.43506100;2022-10-16T04:44:33;20.60;95.70
8485;DHT22;34555;49.34829940;8.43506100;2022-10-16T04:46:58;20.50;95.60
8485;DHT22;34555;49.34829940;8.43506100;2022-10-16T04:49:24;20.60;96.00
8485;DHT22;34555;49.34829940;8.43506100;2022-10-16T04:51:49;20.60;95.70
8485;DHT22;34555;49.34829940;8.43506100;2022-10-16T04:54:15;20.60;95.70
8485;DHT22;34555;49.34829940;8.43506100;2022-10-16T04:56:40;20.60;95.60
8485;DHT22;34555;49.34829940;8.43506100;2022-10-16T04:59:15;20.60;95.60
8485;DHT22;34555;49.34829940;8.43506100;2022-10-16T05:01:41;20.50;95.60
8485;DHT22;34555;49.34829940;8.43506100;2022-10-16T05:04:07;20.60;95.60
8485;DHT22;34555;49.34829940;8.43506100;2022-10-16T05:06:32;20.50;95.60
8485;DHT22;34555;49.34829940;8.43506100;2022-10-16T05:08:58;20.60;95.70
8485;DHT22;34555;49.34829940;8.43506100;2022-10-16T05:11:24;20.50;95.60
8485;DHT22;34555;49.34829940;8.43506100;2022-10-16T05:13:49;20.50;95.60
8485;DHT22;34555;49.34829940;8.43506100;2022-10-16T05:16:15;20.50;95.60
8485;DHT22;34555;49.34829940;8.43506100;2022-10-16T05:18:40;20.50;95.60
8485;DHT22;34555;49.34829940;8.43506100;2022-10-16T05:21:06;20.50;95.60
8485;DHT22;34555;49.34829940;8.43506100;2022-10-16T05:23:32;20.50;95.60
8485;DHT22;34555;49.34829940;8.43506100;2022-10-16T05:25:58;20.50;95.50
8485;DHT22;34555;49.34829940;8.43506100;2022-10-16T05:28:28;20.60;95.60
8485;DHT22;34555;49.34829940;8.43506100;2022-10-16T05:30:54;20.50;95.50
8485;DHT22;34555;49.34829940;8.43506100;2022-10-16T05:33:24;20.50;95.50
8485;DHT22;34555;49.34829940;8.43506100;2022-10-16T05:35:51;20.50;95.50
8485;DHT22;34555;49.34829940;8.43506100;2022-10-16T05:38:17;20.50;95.50
8485;DHT22;34555;49.34829940;8.43506100;2022-10-16T05:40:43;20.50;95.50
8485;DHT22;34555;49.34829940;8.43506100;2022-10-16T05:43:15;20.50;95.60
8485;DHT22;34555;49.34829940;8.43506100;2022-10-16T05:45:40;20.50;95.60
8485;DHT22;34555;49.34829940;8.43506100;2022-10-16T05:48:06;20.50;95.60
8485;DHT22;34555;49.34829940;8.43506100;2022-10-16T05:50:31;20.50;95.50
8485;DHT22;34555;49.34829940;8.43506100;2022-10-16T05:52:57;20.50;95.60
8485;DHT22;34555;49.34829940;8.43506100;2022-10-16T05:55:22;20.50;95.60
8485;DHT22;34555;49.34829940;8.43506100;2022-10-16T05:57:48;20.50;95.80
8485;DHT22;34555;49.34829940;8.43506100;2022-10-16T06:00:13;20.50;95.60
8485;DHT22;34555;49.34829940;8.43506100;2022-10-16T06:02:39;20.50;95.60
8485;DHT22;34555;49.34829940;8.43506100;2022-10-16T06:05:05;20.50;95.50
8485;DHT22;34555;49.34829940;8.43506100;2022-10-16T06:07:34;20.50;95.50
8485;DHT22;34555;49.34829940;8.43506100;2022-10-16T06:10:01;20.50;95.40
8485;DHT22;34555;49.34829940;8.43506100;2022-10-16T06:12:27;20.50;95.40
8485;DHT22;34555;49.34829940;8.43506100;2022-10-16T06:14:52;20.50;95.50
8485;DHT22;34555;49.34829940;8.43506100;2022-10-16T06:17:18;20.50;95.40
8485;DHT22;34555;49.34829940;8.43506100;2022-10-16T06:19:43;20.50;95.40
8485;DHT22;34555;49.34829940;8.43506100;2022-10-16T06:22:09;20.50;95.50
8485;DHT22;34555;49.34829940;8.43506100;2022-10-16T06:24:34;20.50;95.50
8485;DHT22;34555;49.34829940;8.43506100;2022-10-16T06:27:00;20.50;95.50
8485;DHT22;34555;49.34829940;8.43506100;2022-10-16T06:29:25;20.50;95.50
8485;DHT22;34555;49.34829940;8.43506100;2022-10-16T06:31:51;20.50;95.50
8485;DHT22;34555;49.34829940;8.43506100;2022-10-16T06:34:18;20.50;95.50
8485;DHT22;34555;49.34829940;8.43506100;2022-10-16T06:36:43;20.50;95.50
8485;DHT22;34555;49.34829940;8.43506100;2022-10-16T06:39:09;20.50;95.50
8485;DHT22;34555;49.34829940;8.43506100;2022-10-16T06:41:34;20.50;95.50
8485;DHT22;34555;49.34829940;8.43506100;2022-10-16T06:44:00;20.50;95.50
8485;DHT22;34555;49.34829940;8.43506100;2022-10-16T06:46:26;20.50;95.40
8485;DHT22;34555;49.34829940;8.43506100;2022-10-16T06:48:52;20.50;95.40
8485;DHT22;34555;49.34829940;8.43506100;2022-10-16T06:51:20;20.50;95.40
8485;DHT22;34555;49.34829940;8.43506100;2022-10-16T06:53:48;20.50;95.30
8485;DHT22;34555;49.34829940;8.43506100;2022-10-16T06:56:20;20.50;95.30
8485;DHT22;34555;49.34829940;8.43506100;2022-10-16T06:58:46;20.50;95.40
8485;DHT22;34555;49.34829940;8.43506100;2022-10-16T07:01:12;20.50;95.40
8485;DHT22;34555;49.34829940;8.43506100;2022-10-16T07:03:39;20.60;95.30
8485;DHT22;34555;49.34829940;8.43506100;2022-10-16T07:06:06;20.60;95.40
8485;DHT22;34555;49.34829940;8.43506100;2022-10-16T07:08:37;20.50;95.40
8485;DHT22;34555;49.34829940;8.43506100;2022-10-16T07:11:06;20.60;95.40
8485;DHT22;34555;49.34829940;8.43506100;2022-10-16T07:13:36;20.50;95.20
8485;DHT22;34555;49.34829940;8.43506100;2022-10-16T07:16:25;20.50;95.30
8485;DHT22;34555;49.34829940;8.43506100;2022-10-16T07:18:51;20.60;95.30
8485;DHT22;34555;49.34829940;8.43506100;2022-10-16T07:21:23;20.60;95.20
8485;DHT22;34555;49.34829940;8.43506100;2022-10-16T07:23:52;20.60;95.10
8485;DHT22;34555;49.34829940;8.43506100;2022-10-16T07:26:18;20.50;94.70
8485;DHT22;34555;49.34829940;8.43506100;2022-10-16T07:28:44;20.50;96.10
8485;DHT22;34555;49.34829940;8.43506100;2022-10-16T07:31:13;20.50;96.10
8485;DHT22;34555;49.34829940;8.43506100;2022-10-16T07:33:41;20.60;96.10
8485;DHT22;34555;49.34829940;8.43506100;2022-10-16T07:36:11;20.60;96.30
8485;DHT22;34555;49.34829940;8.43506100;2022-10-16T07:38:37;20.70;96.60
8485;DHT22;34555;49.34829940;8.43506100;2022-10-16T07:41:06;20.70;96.90
8485;DHT22;34555;49.34829940;8.43506100;2022-10-16T07:43:33;20.70;97.00
8485;DHT22;34555;49.34829940;8.43506100;2022-10-16T07:45:59;20.80;97.20
8485;DHT22;34555;49.34829940;8.43506100;2022-10-16T07:48:30;20.80;97.20
8485;DHT22;34555;49.34829940;8.43506100;2022-10-16T07:50:58;20.80;97.20
8485;DHT22;34555;49.34829940;8.43506100;2022-10-16T07:53:24;20.90;97.10
8485;DHT22;34555;49.34829940;8.43506100;2022-10-16T07:55:50;20.90;97.30
8485;DHT22;34555;49.34829940;8.43506100;2022-10-16T07:58:15;21.00;97.30
8485;DHT22;34555;49.34829940;8.43506100;2022-10-16T08:00:41;21.00;97.60
8485;DHT22;34555;49.34829940;8.43506100;2022-10-16T08:03:08;21.00;97.70
8485;DHT22;34555;49.34829940;8.43506100;2022-10-16T08:05:33;21.10;97.60
8485;DHT22;34555;49.34829940;8.43506100;2022-10-16T08:08:00;21.10;97.40
8485;DHT22;34555;49.34829940;8.43506100;2022-10-16T08:10:27;21.10;97.40
8485;DHT22;34555;49.34829940;8.43506100;2022-10-16T08:12:53;21.10;97.50
8485;DHT22;34555;49.34829940;8.43506100;2022-10-16T08:15:19;21.10;97.50
8485;DHT22;34555;49.34829940;8.43506100;2022-10-16T08:17:54;21.10;97.40
8485;DHT22;34555;49.34829940;8.43506100;2022-10-16T08:20:20;21.10;97.60
8485;DHT22;34555;49.34829940;8.43506100;2022-10-16T08:22:45;21.10;97.70
8485;DHT22;34555;49.34829940;8.43506100;2022-10-16T08:25:11;21.10;97.70
8485;DHT22;34555;49.34829940;8.43506100;2022-10-16T08:27:36;21.10;97.60
8485;DHT22;34555;49.34829940;8.43506100;2022-10-16T08:30:02;21.10;97.80
8485;DHT22;34555;49.34829940;8.43506100;2022-10-16T08:32:27;21.10;97.60
8485;DHT22;34555;49.34829940;8.43506100;2022-10-16T08:34:53;21.10;97.70
8485;DHT22;34555;49.34829940;8.43506100;2022-10-16T08:37:18;21.20;97.70
8485;DHT22;34555;49.34829940;8.43506100;2022-10-16T08:39:44;21.20;97.70
8485;DHT22;34555;49.34829940;8.43506100;2022-10-16T08:45:01;21.10;97.10
8485;DHT22;34555;49.34829940;8.43506100;2022-10-16T08:50:24;21.00;96.90
8485;DHT22;34555;49.34829940;8.43506100;2022-10-16T08:52:50;21.10;97.80
8485;DHT22;34555;49.34829940;8.43506100;2022-10-16T08:55:46;21.10;97.40
8485;DHT22;34555;49.34829940;8.43506100;2022-10-16T08:58:17;21.20;97.20
8485;DHT22;34555;49.34829940;8.43506100;2022-10-16T09:01:03;21.20;97.20
8485;DHT22;34555;49.34829940;8.43506100;2022-10-16T09:09:26;21.30;97.00
8485;DHT22;34555;49.34829940;8.43506100;2022-10-16T09:12:00;21.30;97.00
8485;DHT22;34555;49.34829940;8.43506100;2022-10-16T09:14:40;21.30;96.90
8485;DHT22;34555;49.34829940;8.43506100;2022-10-16T09:20:27;21.30;96.80
8485;DHT22;34555;49.34829940;8.43506100;2022-10-16T09:23:14;21.30;96.70
8485;DHT22;34555;49.34829940;8.43506100;2022-10-16T09:25:44;21.40;96.50
8485;DHT22;34555;49.34829940;8.43506100;2022-10-16T09:28:10;21.40;96.50
8485;DHT22;34555;49.34829940;8.43506100;2022-10-16T09:30:36;21.40;96.50
8485;DHT22;34555;49.34829940;8.43506100;2022-10-16T09:33:03;21.40;96.40
8485;DHT22;34555;49.34829940;8.43506100;2022-10-16T09:35:39;21.40;96.40
8485;DHT22;34555;49.34829940;8.43506100;2022-10-16T09:38:06;21.40;96.20
8485;DHT22;34555;49.34829940;8.43506100;2022-10-16T09:40:32;21.40;96.20
8485;DHT22;34555;49.34829940;8.43506100;2022-10-16T09:46:05;21.40;96.20
8485;DHT22;34555;49.34829940;8.43506100;2022-10-16T09:48:37;21.40;96.00
8485;DHT22;34555;49.34829940;8.43506100;2022-10-16T09:51:13;21.40;95.90
8485;DHT22;34555;49.34829940;8.43506100;2022-10-16T09:53:43;21.40;96.00
8485;DHT22;34555;49.34829940;8.43506100;2022-10-16T09:56:12;21.40;95.90
8485;DHT22;34555;49.34829940;8.43506100;2022-10-16T09:58:42;21.50;95.80
8485;DHT22;34555;49.34829940;8.43506100;2022-10-16T10:01:14;21.50;95.80
8485;DHT22;34555;49.34829940;8.43506100;2022-10-16T10:03:42;21.50;95.90
8485;DHT22;34555;49.34829940;8.43506100;2022-10-16T10:06:26;21.50;95.80
8485;DHT22;34555;49.34829940;8.43506100;2022-10-16T10:08:57;21.50;95.70
8485;DHT22;34555;49.34829940;8.43506100;2022-10-16T10:11:47;21.50;95.60
8485;DHT22;34555;49.34829940;8.43506100;2022-10-16T10:14:24;21.50;95.70
8485;DHT22;34555;49.34829940;8.43506100;2022-10-16T10:17:01;21.50;95.80
8485;DHT22;34555;49.34829940;8.43506100;2022-10-16T10:19:27;21.50;95.70
8485;DHT22;34555;49.34829940;8.43506100;2022-10-16T10:21:53;21.50;95.60
8485;DHT22;34555;49.34829940;8.43506100;2022-10-16T10:24:19;21.50;95.50
8485;DHT22;34555;49.34829940;8.43506100;2022-10-16T10:27:02;21.60;95.50
8485;DHT22;34555;49.34829940;8.43506100;2022-10-16T10:30:02;21.60;95.40
8485;DHT22;34555;49.34829940;8.43506100;2022-10-16T10:35:22;21.70;95.20
8485;DHT22;34555;49.34829940;8.43506100;2022-10-16T10:38:13;21.70;95.20
8485;DHT22;34555;49.34829940;8.43506100;2022-10-16T10:41:05;21.70;95.10
8485;DHT22;34555;49.34829940;8.43506100;2022-10-16T10:46:49;21.80;95.30
8485;DHT22;34555;49.34829940;8.43506100;2022-10-16T10:49:27;21.80;94.70
8485;DHT22;34555;49.34829940;8.43506100;2022-10-16T10:52:13;21.80;95.10
8485;DHT22;34555;49.34829940;8.43506100;2022-10-16T10:55:14;21.80;95.70
8485;DHT22;34555;49.34829940;8.43506100;2022-10-16T11:00:53;21.70;95.70
8485;DHT22;34555;49.34829940;8.43506100;2022-10-16T11:03:27;21.70;95.80
8485;DHT22;34555;49.34829940;8.43506100;2022-10-16T11:06:01;21.70;95.90
8485;DHT22;34555;49.34829940;8.43506100;2022-10-16T11:09:20;21.70;95.70
8485;DHT22;34555;49.34829940;8.43506100;2022-10-16T11:14:14;21.70;95.50
8485;DHT22;34555;49.34829940;8.43506100;2022-10-16T11:19:44;21.70;95.50
8485;DHT22;34555;49.34829940;8.43506100;2022-10-16T11:22:34;21.70;95.50
8485;DHT22;34555;49.34829940;8.43506100;2022-10-16T11:25:16;21.70;95.50
8485;DHT22;34555;49.34829940;8.43506100;2022-10-16T11:27:56;21.70;95.40
8485;DHT22;34555;49.34829940;8.43506100;2022-10-16T11:30:24;21.70;95.40
8485;DHT22;34555;49.34829940;8.43506100;2022-10-16T11:32:55;21.70;95.40
8485;DHT22;34555;49.34829940;8.43506100;2022-10-16T11:35:30;21.70;95.40
8485;DHT22;34555;49.34829940;8.43506100;2022-10-16T11:37:59;21.70;95.80
8485;DHT22;34555;49.34829940;8.43506100;2022-10-16T11:40:38;21.80;95.80
8485;DHT22;34555;49.34829940;8.43506100;2022-10-16T11:43:25;21.70;95.40
8485;DHT22;34555;49.34829940;8.43506100;2022-10-16T11:45:54;21.70;95.30
8485;DHT22;34555;49.34829940;8.43506100;2022-10-16T11:48:38;21.80;95.40
8485;DHT22;34555;49.34829940;8.43506100;2022-10-16T11:54:26;21.70;95.30
8485;DHT22;34555;49.34829940;8.43506100;2022-10-16T11:56:58;21.80;95.30
8485;DHT22;34555;49.34829940;8.43506100;2022-10-16T11:59:55;21.70;95.20
8485;DHT22;34555;49.34829940;8.43506100;2022-10-16T12:10:29;21.70;95.20
8485;DHT22;34555;49.34829940;8.43506100;2022-10-16T12:12:57;21.70;95.20
8485;DHT22;34555;49.34829940;8.43506100;2022-10-16T12:15:31;21.70;95.30
8485;DHT22;34555;49.34829940;8.43506100;2022-10-16T12:17:57;21.70;95.20
8485;DHT22;34555;49.34829940;8.43506100;2022-10-16T12:20:28;21.60;95.20
8485;DHT22;34555;49.34829940;8.43506100;2022-10-16T12:22:58;21.70;95.20
8485;DHT22;34555;49.34829940;8.43506100;2022-10-16T12:25:35;21.70;95.20
8485;DHT22;34555;49.34829940;8.43506100;2022-10-16T12:28:20;21.70;95.20
8485;DHT22;34555;49.34829940;8.43506100;2022-10-16T12:31:00;21.70;95.10
8485;DHT22;34555;49.34829940;8.43506100;2022-10-16T12:35:59;21.70;95.10
8485;DHT22;34555;49.34829940;8.43506100;2022-10-16T12:38:30;21.70;95.20
8485;DHT22;34555;49.34829940;8.43506100;2022-10-16T12:41:08;21.70;95.20
8485;DHT22;34555;49.34829940;8.43506100;2022-10-16T12:48:35;21.70;96.50
8485;DHT22;34555;49.34829940;8.43506100;2022-10-16T12:54:00;21.80;97.30
8485;DHT22;34555;49.34829940;8.43506100;2022-10-16T12:56:54;21.80;96.60
8485;DHT22;34555;49.34829940;8.43506100;2022-10-16T13:08:01;21.80;97.00
8485;DHT22;34555;49.34829940;8.43506100;2022-10-16T13:10:40;21.80;97.00
8485;DHT22;34555;49.34829940;8.43506100;2022-10-16T13:13:12;21.80;97.10
8485;DHT22;34555;49.34829940;8.43506100;2022-10-16T13:18:54;21.80;97.00
8485;DHT22;34555;49.34829940;8.43506100;2022-10-16T13:21:47;21.80;97.00
8485;DHT22;34555;49.34829940;8.43506100;2022-10-16T13:24:33;21.70;96.90
8485;DHT22;34555;49.34829940;8.43506100;2022-10-16T13:29:41;21.70;96.80
8485;DHT22;34555;49.34829940;8.43506100;2022-10-16T13:32:09;21.70;96.80
8485;DHT22;34555;49.34829940;8.43506100;2022-10-16T13:34:48;21.70;96.80
8485;DHT22;34555;49.34829940;8.43506100;2022-10-16T13:37:19;21.70;96.70
8485;DHT22;34555;49.34829940;8.43506100;2022-10-16T13:39:45;21.70;96.70
8485;DHT22;34555;49.34829940;8.43506100;2022-10-16T13:42:13;21.70;96.80
8485;DHT22;34555;49.34829940;8.43506100;2022-10-16T13:44:45;21.70;96.80
8485;DHT22;34555;49.34829940;8.43506100;2022-10-16T13:47:20;21.70;96.70
8485;DHT22;34555;49.34829940;8.43506100;2022-10-16T13:49:58;21.60;96.60
8485;DHT22;34555;49.34829940;8.43506100;2022-10-16T13:52:23;21.60;96.60
8485;DHT22;34555;49.34829940;8.43506100;2022-10-16T13:54:49;21.70;96.60
8485;DHT22;34555;49.34829940;8.43506100;2022-10-16T13:57:16;21.70;96.60
8485;DHT22;34555;49.34829940;8.43506100;2022-10-16T13:59:41;21.70;96.60
8485;DHT22;34555;49.34829940;8.43506100;2022-10-16T14:04:42;21.70;96.50
8485;DHT22;34555;49.34829940;8.43506100;2022-10-16T14:07:23;21.60;96.60
8485;DHT22;34555;49.34829940;8.43506100;2022-10-16T14:09:50;21.60;96.80
8485;DHT22;34555;49.34829940;8.43506100;2022-10-16T14:12:16;21.60;96.50
8485;DHT22;34555;49.34829940;8.43506100;2022-10-16T14:14:44;21.60;96.50
8485;DHT22;34555;49.34829940;8.43506100;2022-10-16T14:17:20;21.60;96.50
8485;DHT22;34555;49.34829940;8.43506100;2022-10-16T14:19:53;21.60;96.60
8485;DHT22;34555;49.34829940;8.43506100;2022-10-16T14:22:36;21.60;96.60
8485;DHT22;34555;49.34829940;8.43506100;2022-10-16T14:30:51;21.60;96.40
8485;DHT22;34555;49.34829940;8.43506100;2022-10-16T14:36:05;21.60;96.40
8485;DHT22;34555;49.34829940;8.43506100;2022-10-16T14:38:40;21.60;96.30
8485;DHT22;34555;49.34829940;8.43506100;2022-10-16T14:41:06;21.60;96.30
8485;DHT22;34555;49.34829940;8.43506100;2022-10-16T14:43:37;21.60;96.40
8485;DHT22;34555;49.34829940;8.43506100;2022-10-16T14:46:13;21.60;96.50
8485;DHT22;34555;49.34829940;8.43506100;2022-10-16T14:48:44;21.60;96.40
8485;DHT22;34555;49.34829940;8.43506100;2022-10-16T14:51:15;21.60;96.40
8485;DHT22;34555;49.34829940;8.43506100;2022-10-16T14:53:41;21.60;96.30
8485;DHT22;34555;49.34829940;8.43506100;2022-10-16T14:56:25;21.60;96.30
8485;DHT22;34555;49.34829940;8.43506100;2022-10-16T14:58:52;21.60;96.20
8485;DHT22;34555;49.34829940;8.43506100;2022-10-16T15:01:18;21.60;96.00
8485;DHT22;34555;49.34829940;8.43506100;2022-10-16T15:03:44;21.70;96.10
8485;DHT22;34555;49.34829940;8.43506100;2022-10-16T15:06:11;21.60;96.00
8485;DHT22;34555;49.34829940;8.43506100;2022-10-16T15:08:37;21.60;96.00
8485;DHT22;34555;49.34829940;8.43506100;2022-10-16T15:11:03;21.70;96.10
8485;DHT22;34555;49.34829940;8.43506100;2022-10-16T15:13:28;21.60;96.10
8485;DHT22;34555;49.34829940;8.43506100;2022-10-16T15:15:54;21.60;96.10
8485;DHT22;34555;49.34829940;8.43506100;2022-10-16T15:18:19;21.60;96.10
8485;DHT22;34555;49.34829940;8.43506100;2022-10-16T15:20:48;21.70;96.10